sensor_id;sensor_type;location;lat;lon;timestamp;P1;durP1;ratioP1;P2;durP2;ratioP2
12228;SDS011;6177;52.402;9.800;2022-12-07T00:02:31;34.13;;;23.77;;
12228;SDS011;6177;52.402;9.800;2022-12-07T00:05:16;32.07;;;23.07;;
12228;SDS011;6177;52.402;9.800;2022-12-07T00:08:01;32.17;;;23.53;;
12228;SDS011;6177;52.402;9.800;2022-12-07T00:10:46;31.67;;;24.03;;
12228;SDS011;6177;52.402;9.800;2022-12-07T00:13:31;33.57;;;23.73;;
12228;SDS011;6177;52.402;9.800;2022-12-07T00:16:18;31.00;;;25.00;;
12228;SDS011;6177;52.402;9.800;2022-12-07T00:19:05;32.20;;;25.60;;
12228;SDS011;6177;52.402;9.800;2022-12-07T00:21:50;30.33;;;23.33;;
12228;SDS011;6177;52.402;9.800;2022-12-07T00:24:35;29.60;;;23.17;;
12228;SDS011;6177;52.402;9.800;2022-12-07T00:27:20;34.03;;;24.00;;
12228;SDS011;6177;52.402;9.800;2022-12-07T00:30:05;30.53;;;23.87;;
12228;SDS011;6177;52.402;9.800;2022-12-07T00:32:51;31.20;;;22.53;;
12228;SDS011;6177;52.402;9.800;2022-12-07T00:35:36;28.40;;;22.63;;
12228;SDS011;6177;52.402;9.800;2022-12-07T00:38:21;29.87;;;23.57;;
12228;SDS011;6177;52.402;9.800;2022-12-07T00:41:09;30.67;;;24.03;;
12228;SDS011;6177;52.402;9.800;2022-12-07T00:43:56;31.33;;;24.33;;
12228;SDS011;6177;52.402;9.800;2022-12-07T00:46:42;27.77;;;22.60;;
12228;SDS011;6177;52.402;9.800;2022-12-07T00:49:27;27.80;;;22.07;;
12228;SDS011;6177;52.402;9.800;2022-12-07T00:52:12;29.27;;;22.83;;
12228;SDS011;6177;52.402;9.800;2022-12-07T00:54:57;27.07;;;21.40;;
12228;SDS011;6177;52.402;9.800;2022-12-07T00:57:42;27.53;;;22.87;;
12228;SDS011;6177;52.402;9.800;2022-12-07T01:00:27;26.00;;;21.07;;
12228;SDS011;6177;52.402;9.800;2022-12-07T01:03:12;27.37;;;23.63;;
12228;SDS011;6177;52.402;9.800;2022-12-07T01:05:59;23.87;;;21.37;;
12228;SDS011;6177;52.402;9.800;2022-12-07T01:08:45;24.73;;;21.87;;
12228;SDS011;6177;52.402;9.800;2022-12-07T01:11:30;25.03;;;21.07;;
12228;SDS011;6177;52.402;9.800;2022-12-07T01:14:16;24.70;;;19.47;;
12228;SDS011;6177;52.402;9.800;2022-12-07T01:17:01;26.03;;;21.60;;
12228;SDS011;6177;52.402;9.800;2022-12-07T01:19:46;25.83;;;22.27;;
12228;SDS011;6177;52.402;9.800;2022-12-07T01:22:31;25.30;;;22.60;;
12228;SDS011;6177;52.402;9.800;2022-12-07T01:25:20;26.83;;;24.03;;
12228;SDS011;6177;52.402;9.800;2022-12-07T01:28:05;28.37;;;22.83;;
12228;SDS011;6177;52.402;9.800;2022-12-07T01:30:57;29.37;;;24.13;;
12228;SDS011;6177;52.402;9.800;2022-12-07T01:33:53;29.03;;;25.07;;
12228;SDS011;6177;52.402;9.800;2022-12-07T01:36:40;28.33;;;24.97;;
12228;SDS011;6177;52.402;9.800;2022-12-07T01:39:25;31.47;;;24.43;;
12228;SDS011;6177;52.402;9.800;2022-12-07T01:42:11;32.13;;;28.73;;
12228;SDS011;6177;52.402;9.800;2022-12-07T01:48:16;31.33;;;25.00;;
12228;SDS011;6177;52.402;9.800;2022-12-07T01:51:05;31.23;;;23.97;;
12228;SDS011;6177;52.402;9.800;2022-12-07T01:53:56;29.70;;;25.97;;
12228;SDS011;6177;52.402;9.800;2022-12-07T01:56:41;30.37;;;25.43;;
12228;SDS011;6177;52.402;9.800;2022-12-07T01:59:32;29.43;;;25.10;;
12228;SDS011;6177;52.402;9.800;2022-12-07T02:02:20;32.17;;;26.03;;
12228;SDS011;6177;52.402;9.800;2022-12-07T02:05:11;29.93;;;26.63;;
12228;SDS011;6177;52.402;9.800;2022-12-07T02:07:56;33.63;;;25.73;;
12228;SDS011;6177;52.402;9.800;2022-12-07T02:10:42;28.57;;;24.73;;
12228;SDS011;6177;52.402;9.800;2022-12-07T02:13:31;30.77;;;25.00;;
12228;SDS011;6177;52.402;9.800;2022-12-07T02:35:04;24.03;;;21.03;;
12228;SDS011;6177;52.402;9.800;2022-12-07T02:41:00;22.33;;;19.93;;
12228;SDS011;6177;52.402;9.800;2022-12-07T02:43:59;26.50;;;20.70;;
12228;SDS011;6177;52.402;9.800;2022-12-07T02:46:49;25.10;;;20.40;;
12228;SDS011;6177;52.402;9.800;2022-12-07T02:49:39;26.90;;;21.97;;
12228;SDS011;6177;52.402;9.800;2022-12-07T02:52:25;25.33;;;22.43;;
12228;SDS011;6177;52.402;9.800;2022-12-07T02:55:10;22.93;;;20.63;;
12228;SDS011;6177;52.402;9.800;2022-12-07T03:01:08;21.10;;;18.67;;
12228;SDS011;6177;52.402;9.800;2022-12-07T03:04:07;21.90;;;19.57;;
12228;SDS011;6177;52.402;9.800;2022-12-07T03:16:14;18.97;;;16.47;;
12228;SDS011;6177;52.402;9.800;2022-12-07T03:19:12;18.00;;;16.23;;
12228;SDS011;6177;52.402;9.800;2022-12-07T03:22:07;18.83;;;16.83;;
12228;SDS011;6177;52.402;9.800;2022-12-07T03:24:55;17.00;;;15.40;;
12228;SDS011;6177;52.402;9.800;2022-12-07T03:27:51;17.27;;;15.57;;
12228;SDS011;6177;52.402;9.800;2022-12-07T03:30:55;17.70;;;16.00;;
12228;SDS011;6177;52.402;9.800;2022-12-07T03:37:17;15.53;;;13.93;;
12228;SDS011;6177;52.402;9.800;2022-12-07T03:40:13;15.97;;;13.60;;
12228;SDS011;6177;52.402;9.800;2022-12-07T03:43:13;14.03;;;12.60;;
12228;SDS011;6177;52.402;9.800;2022-12-07T03:49:25;13.93;;;12.50;;
12228;SDS011;6177;52.402;9.800;2022-12-07T03:52:36;12.90;;;11.50;;
12228;SDS011;6177;52.402;9.800;2022-12-07T03:55:38;12.90;;;11.60;;
12228;SDS011;6177;52.402;9.800;2022-12-07T03:58:26;12.83;;;11.63;;
12228;SDS011;6177;52.402;9.800;2022-12-07T04:01:12;13.90;;;12.40;;
12228;SDS011;6177;52.402;9.800;2022-12-07T04:03:57;14.87;;;13.10;;
12228;SDS011;6177;52.402;9.800;2022-12-07T04:06:42;15.17;;;13.00;;
12228;SDS011;6177;52.402;9.800;2022-12-07T04:09:27;14.23;;;12.73;;
12228;SDS011;6177;52.402;9.800;2022-12-07T04:12:12;15.73;;;13.10;;
12228;SDS011;6177;52.402;9.800;2022-12-07T04:14:57;13.90;;;12.57;;
12228;SDS011;6177;52.402;9.800;2022-12-07T04:17:42;13.03;;;11.73;;
12228;SDS011;6177;52.402;9.800;2022-12-07T04:20:27;15.20;;;12.30;;
12228;SDS011;6177;52.402;9.800;2022-12-07T04:23:12;13.07;;;11.63;;
12228;SDS011;6177;52.402;9.800;2022-12-07T04:25:57;16.00;;;12.03;;
12228;SDS011;6177;52.402;9.800;2022-12-07T04:28:42;13.63;;;12.17;;
12228;SDS011;6177;52.402;9.800;2022-12-07T04:31:27;13.77;;;12.17;;
12228;SDS011;6177;52.402;9.800;2022-12-07T04:34:12;12.83;;;11.33;;
12228;SDS011;6177;52.402;9.800;2022-12-07T04:36:58;11.27;;;10.03;;
12228;SDS011;6177;52.402;9.800;2022-12-07T04:39:43;13.73;;;11.37;;
12228;SDS011;6177;52.402;9.800;2022-12-07T04:42:29;13.17;;;10.53;;
12228;SDS011;6177;52.402;9.800;2022-12-07T04:45:14;10.13;;;9.07;;
12228;SDS011;6177;52.402;9.800;2022-12-07T04:47:59;12.13;;;10.40;;
12228;SDS011;6177;52.402;9.800;2022-12-07T04:51:03;12.17;;;10.63;;
12228;SDS011;6177;52.402;9.800;2022-12-07T04:53:48;11.57;;;10.47;;
12228;SDS011;6177;52.402;9.800;2022-12-07T04:56:33;13.70;;;10.33;;
12228;SDS011;6177;52.402;9.800;2022-12-07T04:59:19;11.00;;;9.93;;
12228;SDS011;6177;52.402;9.800;2022-12-07T05:02:04;10.30;;;9.23;;
12228;SDS011;6177;52.402;9.800;2022-12-07T05:04:49;12.97;;;9.87;;
12228;SDS011;6177;52.402;9.800;2022-12-07T05:07:33;11.07;;;9.90;;
12228;SDS011;6177;52.402;9.800;2022-12-07T05:10:19;10.93;;;9.83;;
12228;SDS011;6177;52.402;9.800;2022-12-07T05:13:04;9.77;;;8.63;;
12228;SDS011;6177;52.402;9.800;2022-12-07T05:15:49;10.40;;;9.30;;
12228;SDS011;6177;52.402;9.800;2022-12-07T05:18:34;10.20;;;9.10;;
12228;SDS011;6177;52.402;9.800;2022-12-07T05:21:19;16.83;;;9.17;;
12228;SDS011;6177;52.402;9.800;2022-12-07T05:24:04;12.50;;;10.83;;
12228;SDS011;6177;52.402;9.800;2022-12-07T05:26:50;11.97;;;8.90;;
12228;SDS011;6177;52.402;9.800;2022-12-07T05:29:35;12.27;;;9.43;;
12228;SDS011;6177;52.402;9.800;2022-12-07T05:32:20;10.00;;;9.03;;
12228;SDS011;6177;52.402;9.800;2022-12-07T05:35:05;15.20;;;9.80;;
12228;SDS011;6177;52.402;9.800;2022-12-07T05:37:50;10.80;;;9.70;;
12228;SDS011;6177;52.402;9.800;2022-12-07T05:40:36;10.83;;;9.67;;
12228;SDS011;6177;52.402;9.800;2022-12-07T05:43:21;12.60;;;9.30;;
12228;SDS011;6177;52.402;9.800;2022-12-07T05:46:06;11.60;;;9.33;;
12228;SDS011;6177;52.402;9.800;2022-12-07T05:48:51;9.13;;;8.23;;
12228;SDS011;6177;52.402;9.800;2022-12-07T05:51:36;14.87;;;9.03;;
12228;SDS011;6177;52.402;9.800;2022-12-07T05:54:21;10.93;;;9.00;;
12228;SDS011;6177;52.402;9.800;2022-12-07T05:57:07;13.33;;;8.90;;
12228;SDS011;6177;52.402;9.800;2022-12-07T05:59:52;11.30;;;8.57;;
12228;SDS011;6177;52.402;9.800;2022-12-07T06:02:37;11.50;;;8.10;;
12228;SDS011;6177;52.402;9.800;2022-12-07T06:05:22;10.90;;;8.63;;
12228;SDS011;6177;52.402;9.800;2022-12-07T06:08:07;9.97;;;7.03;;
12228;SDS011;6177;52.402;9.800;2022-12-07T06:10:52;8.17;;;7.37;;
12228;SDS011;6177;52.402;9.800;2022-12-07T06:13:57;9.10;;;7.00;;
12228;SDS011;6177;52.402;9.800;2022-12-07T06:16:42;8.37;;;7.03;;
12228;SDS011;6177;52.402;9.800;2022-12-07T06:19:28;8.80;;;6.60;;
12228;SDS011;6177;52.402;9.800;2022-12-07T06:22:13;9.47;;;7.33;;
12228;SDS011;6177;52.402;9.800;2022-12-07T06:24:58;8.17;;;7.37;;
12228;SDS011;6177;52.402;9.800;2022-12-07T06:27:43;8.33;;;6.50;;
12228;SDS011;6177;52.402;9.800;2022-12-07T06:30:29;9.60;;;7.30;;
12228;SDS011;6177;52.402;9.800;2022-12-07T06:33:14;9.50;;;6.73;;
12228;SDS011;6177;52.402;9.800;2022-12-07T06:35:59;9.83;;;6.37;;
12228;SDS011;6177;52.402;9.800;2022-12-07T06:38:44;9.63;;;5.80;;
12228;SDS011;6177;52.402;9.800;2022-12-07T06:41:29;10.23;;;7.37;;
12228;SDS011;6177;52.402;9.800;2022-12-07T06:44:14;8.17;;;7.27;;
12228;SDS011;6177;52.402;9.800;2022-12-07T06:46:59;10.63;;;6.27;;
12228;SDS011;6177;52.402;9.800;2022-12-07T06:49:44;9.93;;;7.33;;
12228;SDS011;6177;52.402;9.800;2022-12-07T06:52:29;9.87;;;7.10;;
12228;SDS011;6177;52.402;9.800;2022-12-07T06:55:15;8.73;;;5.90;;
12228;SDS011;6177;52.402;9.800;2022-12-07T06:58:00;9.43;;;6.03;;
12228;SDS011;6177;52.402;9.800;2022-12-07T07:00:47;7.57;;;5.97;;
12228;SDS011;6177;52.402;9.800;2022-12-07T07:03:34;8.50;;;5.03;;
12228;SDS011;6177;52.402;9.800;2022-12-07T07:06:18;7.13;;;5.97;;
12228;SDS011;6177;52.402;9.800;2022-12-07T07:09:04;8.50;;;5.80;;
12228;SDS011;6177;52.402;9.800;2022-12-07T07:11:49;8.70;;;6.37;;
12228;SDS011;6177;52.402;9.800;2022-12-07T07:14:34;6.57;;;5.13;;
12228;SDS011;6177;52.402;9.800;2022-12-07T07:17:19;9.50;;;5.97;;
12228;SDS011;6177;52.402;9.800;2022-12-07T07:20:04;7.67;;;5.27;;
12228;SDS011;6177;52.402;9.800;2022-12-07T07:22:50;10.07;;;5.97;;
12228;SDS011;6177;52.402;9.800;2022-12-07T07:25:38;7.13;;;5.40;;
12228;SDS011;6177;52.402;9.800;2022-12-07T07:28:24;9.40;;;5.20;;
12228;SDS011;6177;52.402;9.800;2022-12-07T07:31:09;6.47;;;4.63;;
12228;SDS011;6177;52.402;9.800;2022-12-07T07:33:54;4.63;;;4.23;;
12228;SDS011;6177;52.402;9.800;2022-12-07T07:36:39;7.13;;;4.30;;
12228;SDS011;6177;52.402;9.800;2022-12-07T07:39:24;10.10;;;4.70;;
12228;SDS011;6177;52.402;9.800;2022-12-07T07:42:09;4.60;;;4.07;;
12228;SDS011;6177;52.402;9.800;2022-12-07T07:44:56;6.13;;;4.00;;
12228;SDS011;6177;52.402;9.800;2022-12-07T07:47:41;4.00;;;3.67;;
12228;SDS011;6177;52.402;9.800;2022-12-07T07:50:26;6.27;;;4.17;;
12228;SDS011;6177;52.402;9.800;2022-12-07T07:53:11;5.43;;;3.30;;
12228;SDS011;6177;52.402;9.800;2022-12-07T07:55:56;6.20;;;3.63;;
12228;SDS011;6177;52.402;9.800;2022-12-07T07:58:41;7.10;;;3.43;;
12228;SDS011;6177;52.402;9.800;2022-12-07T08:01:26;4.33;;;3.20;;
12228;SDS011;6177;52.402;9.800;2022-12-07T08:04:11;3.40;;;3.00;;
12228;SDS011;6177;52.402;9.800;2022-12-07T08:06:56;7.00;;;3.00;;
12228;SDS011;6177;52.402;9.800;2022-12-07T08:09:42;5.63;;;3.13;;
12228;SDS011;6177;52.402;9.800;2022-12-07T08:12:27;5.17;;;2.73;;
12228;SDS011;6177;52.402;9.800;2022-12-07T08:15:12;2.50;;;2.03;;
12228;SDS011;6177;52.402;9.800;2022-12-07T08:17:58;3.53;;;2.30;;
12228;SDS011;6177;52.402;9.800;2022-12-07T08:20:43;4.53;;;2.47;;
12228;SDS011;6177;52.402;9.800;2022-12-07T08:23:28;4.00;;;2.53;;
12228;SDS011;6177;52.402;9.800;2022-12-07T08:26:15;5.73;;;2.70;;
12228;SDS011;6177;52.402;9.800;2022-12-07T08:29:01;7.47;;;2.50;;
12228;SDS011;6177;52.402;9.800;2022-12-07T08:31:46;4.00;;;2.73;;
12228;SDS011;6177;52.402;9.800;2022-12-07T08:34:31;6.23;;;2.40;;
12228;SDS011;6177;52.402;9.800;2022-12-07T08:37:16;4.57;;;2.53;;
12228;SDS011;6177;52.402;9.800;2022-12-07T08:40:02;5.77;;;2.20;;
12228;SDS011;6177;52.402;9.800;2022-12-07T08:42:49;4.73;;;2.23;;
12228;SDS011;6177;52.402;9.800;2022-12-07T08:45:35;2.90;;;1.63;;
12228;SDS011;6177;52.402;9.800;2022-12-07T08:48:20;6.27;;;1.90;;
12228;SDS011;6177;52.402;9.800;2022-12-07T08:51:08;2.63;;;1.93;;
12228;SDS011;6177;52.402;9.800;2022-12-07T08:53:53;4.07;;;1.50;;
12228;SDS011;6177;52.402;9.800;2022-12-07T08:56:39;5.53;;;1.93;;
12228;SDS011;6177;52.402;9.800;2022-12-07T08:59:25;4.73;;;2.20;;
12228;SDS011;6177;52.402;9.800;2022-12-07T09:02:12;5.90;;;2.30;;
12228;SDS011;6177;52.402;9.800;2022-12-07T09:04:57;2.30;;;1.87;;
12228;SDS011;6177;52.402;9.800;2022-12-07T09:07:46;3.47;;;1.80;;
12228;SDS011;6177;52.402;9.800;2022-12-07T09:10:35;4.57;;;1.77;;
12228;SDS011;6177;52.402;9.800;2022-12-07T09:13:20;6.10;;;2.20;;
12228;SDS011;6177;52.402;9.800;2022-12-07T09:16:05;4.37;;;1.93;;
12228;SDS011;6177;52.402;9.800;2022-12-07T09:18:51;2.83;;;1.90;;
12228;SDS011;6177;52.402;9.800;2022-12-07T09:21:37;6.63;;;1.70;;
12228;SDS011;6177;52.402;9.800;2022-12-07T09:24:22;2.70;;;1.80;;
12228;SDS011;6177;52.402;9.800;2022-12-07T09:27:08;4.53;;;2.50;;
12228;SDS011;6177;52.402;9.800;2022-12-07T09:29:53;2.57;;;2.33;;
12228;SDS011;6177;52.402;9.800;2022-12-07T09:32:38;2.03;;;1.93;;
12228;SDS011;6177;52.402;9.800;2022-12-07T09:35:23;1.77;;;1.63;;
12228;SDS011;6177;52.402;9.800;2022-12-07T09:38:09;3.40;;;1.10;;
12228;SDS011;6177;52.402;9.800;2022-12-07T09:40:54;2.70;;;1.40;;
12228;SDS011;6177;52.402;9.800;2022-12-07T09:43:39;2.30;;;1.17;;
12228;SDS011;6177;52.402;9.800;2022-12-07T09:46:25;3.17;;;1.10;;
12228;SDS011;6177;52.402;9.800;2022-12-07T09:49:17;3.53;;;1.40;;
12228;SDS011;6177;52.402;9.800;2022-12-07T09:54:53;1.33;;;1.03;;
12228;SDS011;6177;52.402;9.800;2022-12-07T09:57:38;2.77;;;1.37;;
12228;SDS011;6177;52.402;9.800;2022-12-07T10:00:23;1.27;;;0.90;;
12228;SDS011;6177;52.402;9.800;2022-12-07T10:03:09;1.80;;;1.23;;
12228;SDS011;6177;52.402;9.800;2022-12-07T10:05:56;1.83;;;1.43;;
12228;SDS011;6177;52.402;9.800;2022-12-07T10:08:41;2.80;;;2.27;;
12228;SDS011;6177;52.402;9.800;2022-12-07T10:11:27;1.53;;;0.90;;
12228;SDS011;6177;52.402;9.800;2022-12-07T10:14:12;2.70;;;0.73;;
12228;SDS011;6177;52.402;9.800;2022-12-07T10:16:58;1.30;;;1.10;;
12228;SDS011;6177;52.402;9.800;2022-12-07T10:19:43;1.23;;;1.13;;
12228;SDS011;6177;52.402;9.800;2022-12-07T10:22:28;2.30;;;0.93;;
12228;SDS011;6177;52.402;9.800;2022-12-07T10:25:19;1.03;;;0.87;;
12228;SDS011;6177;52.402;9.800;2022-12-07T10:33:50;3.67;;;0.97;;
12228;SDS011;6177;52.402;9.800;2022-12-07T10:36:38;3.83;;;0.90;;
12228;SDS011;6177;52.402;9.800;2022-12-07T10:39:23;2.20;;;1.10;;
12228;SDS011;6177;52.402;9.800;2022-12-07T10:42:15;1.47;;;1.03;;
12228;SDS011;6177;52.402;9.800;2022-12-07T10:45:17;1.47;;;0.87;;
12228;SDS011;6177;52.402;9.800;2022-12-07T10:51:17;4.80;;;1.20;;
12228;SDS011;6177;52.402;9.800;2022-12-07T10:57:47;3.57;;;1.30;;
12228;SDS011;6177;52.402;9.800;2022-12-07T11:01:01;3.73;;;1.30;;
12228;SDS011;6177;52.402;9.800;2022-12-07T11:07:12;3.27;;;1.10;;
12228;SDS011;6177;52.402;9.800;2022-12-07T11:10:08;1.97;;;0.90;;
12228;SDS011;6177;52.402;9.800;2022-12-07T11:22:50;2.07;;;1.07;;
12228;SDS011;6177;52.402;9.800;2022-12-07T11:31:56;0.33;;;0.33;;
12228;SDS011;6177;52.402;9.800;2022-12-07T11:38:07;1.47;;;0.57;;
12228;SDS011;6177;52.402;9.800;2022-12-07T11:41:01;1.90;;;0.70;;
12228;SDS011;6177;52.402;9.800;2022-12-07T11:44:02;0.53;;;0.53;;
12228;SDS011;6177;52.402;9.800;2022-12-07T11:46:54;1.17;;;0.80;;
12228;SDS011;6177;52.402;9.800;2022-12-07T11:49:46;1.03;;;0.80;;
12228;SDS011;6177;52.402;9.800;2022-12-07T11:52:43;0.60;;;0.60;;
12228;SDS011;6177;52.402;9.800;2022-12-07T12:04:50;1.23;;;1.23;;
12228;SDS011;6177;52.402;9.800;2022-12-07T12:07:42;2.53;;;1.03;;
12228;SDS011;6177;52.402;9.800;2022-12-07T12:13:33;2.80;;;1.20;;
12228;SDS011;6177;52.402;9.800;2022-12-07T12:22:40;3.07;;;1.60;;
12228;SDS011;6177;52.402;9.800;2022-12-07T12:25:29;3.40;;;1.70;;
12228;SDS011;6177;52.402;9.800;2022-12-07T12:28:40;1.50;;;1.40;;
12228;SDS011;6177;52.402;9.800;2022-12-07T12:31:39;1.90;;;1.30;;
12228;SDS011;6177;52.402;9.800;2022-12-07T12:34:38;3.23;;;1.60;;
12228;SDS011;6177;52.402;9.800;2022-12-07T12:43:27;3.87;;;1.40;;
12228;SDS011;6177;52.402;9.800;2022-12-07T13:07:13;5.30;;;1.83;;
12228;SDS011;6177;52.402;9.800;2022-12-07T13:18:53;3.03;;;1.20;;
12228;SDS011;6177;52.402;9.800;2022-12-07T13:24:25;4.07;;;1.40;;
12228;SDS011;6177;52.402;9.800;2022-12-07T13:27:10;5.17;;;1.73;;
12228;SDS011;6177;52.402;9.800;2022-12-07T13:29:56;3.50;;;1.40;;
12228;SDS011;6177;52.402;9.800;2022-12-07T13:32:43;2.43;;;1.40;;
12228;SDS011;6177;52.402;9.800;2022-12-07T13:35:39;1.73;;;1.13;;
12228;SDS011;6177;52.402;9.800;2022-12-07T13:38:27;5.90;;;1.60;;
12228;SDS011;6177;52.402;9.800;2022-12-07T13:41:15;1.57;;;1.10;;
12228;SDS011;6177;52.402;9.800;2022-12-07T13:44:13;4.57;;;1.37;;
12228;SDS011;6177;52.402;9.800;2022-12-07T13:47:05;3.50;;;1.70;;
12228;SDS011;6177;52.402;9.800;2022-12-07T13:49:56;3.10;;;1.70;;
12228;SDS011;6177;52.402;9.800;2022-12-07T13:52:45;2.17;;;1.57;;
12228;SDS011;6177;52.402;9.800;2022-12-07T13:55:30;4.83;;;1.33;;
12228;SDS011;6177;52.402;9.800;2022-12-07T13:58:15;3.50;;;2.20;;
12228;SDS011;6177;52.402;9.800;2022-12-07T14:01:01;2.80;;;1.47;;
12228;SDS011;6177;52.402;9.800;2022-12-07T14:03:46;5.33;;;1.37;;
12228;SDS011;6177;52.402;9.800;2022-12-07T14:06:31;2.73;;;1.50;;
12228;SDS011;6177;52.402;9.800;2022-12-07T14:09:17;4.13;;;1.80;;
12228;SDS011;6177;52.402;9.800;2022-12-07T14:12:05;2.43;;;1.20;;
12228;SDS011;6177;52.402;9.800;2022-12-07T14:14:51;3.40;;;1.50;;
12228;SDS011;6177;52.402;9.800;2022-12-07T14:17:38;4.97;;;1.60;;
12228;SDS011;6177;52.402;9.800;2022-12-07T14:20:37;6.67;;;1.80;;
12228;SDS011;6177;52.402;9.800;2022-12-07T14:23:25;3.23;;;1.17;;
12228;SDS011;6177;52.402;9.800;2022-12-07T14:26:12;4.53;;;1.43;;
12228;SDS011;6177;52.402;9.800;2022-12-07T14:32:15;2.93;;;1.47;;
12228;SDS011;6177;52.402;9.800;2022-12-07T14:35:07;2.40;;;1.37;;
12228;SDS011;6177;52.402;9.800;2022-12-07T14:37:55;4.53;;;1.57;;
12228;SDS011;6177;52.402;9.800;2022-12-07T14:40:40;4.40;;;1.73;;
12228;SDS011;6177;52.402;9.800;2022-12-07T14:43:25;2.80;;;1.50;;
12228;SDS011;6177;52.402;9.800;2022-12-07T14:46:10;2.97;;;1.57;;
12228;SDS011;6177;52.402;9.800;2022-12-07T14:48:55;2.73;;;1.33;;
12228;SDS011;6177;52.402;9.800;2022-12-07T14:51:40;2.97;;;0.90;;
12228;SDS011;6177;52.402;9.800;2022-12-07T14:54:30;3.13;;;1.40;;
12228;SDS011;6177;52.402;9.800;2022-12-07T14:57:16;8.50;;;2.07;;
12228;SDS011;6177;52.402;9.800;2022-12-07T15:00:01;2.83;;;1.43;;
12228;SDS011;6177;52.402;9.800;2022-12-07T15:02:48;4.47;;;1.47;;
12228;SDS011;6177;52.402;9.800;2022-12-07T15:05:33;4.23;;;1.30;;
12228;SDS011;6177;52.402;9.800;2022-12-07T15:08:19;3.17;;;1.47;;
12228;SDS011;6177;52.402;9.800;2022-12-07T15:11:04;4.80;;;1.80;;
12228;SDS011;6177;52.402;9.800;2022-12-07T15:13:49;3.63;;;1.57;;
12228;SDS011;6177;52.402;9.800;2022-12-07T15:16:52;4.50;;;1.50;;
12228;SDS011;6177;52.402;9.800;2022-12-07T15:19:37;3.97;;;1.80;;
12228;SDS011;6177;52.402;9.800;2022-12-07T15:22:22;6.90;;;2.13;;
12228;SDS011;6177;52.402;9.800;2022-12-07T15:25:08;3.87;;;2.03;;
12228;SDS011;6177;52.402;9.800;2022-12-07T15:27:57;2.37;;;1.53;;
12228;SDS011;6177;52.402;9.800;2022-12-07T15:30:42;4.20;;;1.47;;
12228;SDS011;6177;52.402;9.800;2022-12-07T15:33:28;3.87;;;2.50;;
12228;SDS011;6177;52.402;9.800;2022-12-07T15:36:20;2.37;;;1.80;;
12228;SDS011;6177;52.402;9.800;2022-12-07T15:39:08;3.73;;;1.80;;
12228;SDS011;6177;52.402;9.800;2022-12-07T15:41:53;2.23;;;2.03;;
12228;SDS011;6177;52.402;9.800;2022-12-07T15:44:38;4.87;;;1.80;;
12228;SDS011;6177;52.402;9.800;2022-12-07T15:47:43;6.53;;;2.67;;
12228;SDS011;6177;52.402;9.800;2022-12-07T15:50:31;5.03;;;2.30;;
12228;SDS011;6177;52.402;9.800;2022-12-07T15:53:16;5.17;;;2.57;;
12228;SDS011;6177;52.402;9.800;2022-12-07T15:56:06;5.00;;;2.53;;
12228;SDS011;6177;52.402;9.800;2022-12-07T15:58:52;4.83;;;2.33;;
12228;SDS011;6177;52.402;9.800;2022-12-07T16:01:37;2.50;;;2.30;;
12228;SDS011;6177;52.402;9.800;2022-12-07T16:04:22;3.87;;;2.70;;
12228;SDS011;6177;52.402;9.800;2022-12-07T16:07:07;5.40;;;3.20;;
12228;SDS011;6177;52.402;9.800;2022-12-07T16:09:53;3.37;;;2.67;;
12228;SDS011;6177;52.402;9.800;2022-12-07T16:12:39;2.70;;;2.50;;
12228;SDS011;6177;52.402;9.800;2022-12-07T16:15:24;5.27;;;2.93;;
12228;SDS011;6177;52.402;9.800;2022-12-07T16:18:10;3.27;;;2.40;;
12228;SDS011;6177;52.402;9.800;2022-12-07T16:20:55;6.07;;;2.50;;
12228;SDS011;6177;52.402;9.800;2022-12-07T16:23:40;3.73;;;2.20;;
12228;SDS011;6177;52.402;9.800;2022-12-07T16:26:26;4.80;;;2.20;;
12228;SDS011;6177;52.402;9.800;2022-12-07T16:29:12;7.20;;;3.30;;
12228;SDS011;6177;52.402;9.800;2022-12-07T16:31:57;5.67;;;3.50;;
12228;SDS011;6177;52.402;9.800;2022-12-07T16:34:42;6.07;;;3.07;;
12228;SDS011;6177;52.402;9.800;2022-12-07T16:37:27;7.47;;;3.67;;
12228;SDS011;6177;52.402;9.800;2022-12-07T16:40:12;5.47;;;3.00;;
12228;SDS011;6177;52.402;9.800;2022-12-07T16:42:57;4.13;;;3.30;;
12228;SDS011;6177;52.402;9.800;2022-12-07T16:45:42;6.43;;;3.10;;
12228;SDS011;6177;52.402;9.800;2022-12-07T16:48:27;4.30;;;3.30;;
12228;SDS011;6177;52.402;9.800;2022-12-07T16:51:13;4.80;;;3.70;;
12228;SDS011;6177;52.402;9.800;2022-12-07T16:53:58;3.37;;;3.13;;
12228;SDS011;6177;52.402;9.800;2022-12-07T16:56:43;5.23;;;3.40;;
12228;SDS011;6177;52.402;9.800;2022-12-07T16:59:28;6.37;;;3.43;;
12228;SDS011;6177;52.402;9.800;2022-12-07T17:02:13;6.23;;;3.30;;
12228;SDS011;6177;52.402;9.800;2022-12-07T17:04:58;7.30;;;3.03;;
12228;SDS011;6177;52.402;9.800;2022-12-07T17:07:43;5.43;;;3.77;;
12228;SDS011;6177;52.402;9.800;2022-12-07T17:10:28;6.37;;;3.63;;
12228;SDS011;6177;52.402;9.800;2022-12-07T17:13:14;4.03;;;3.73;;
12228;SDS011;6177;52.402;9.800;2022-12-07T17:16:18;6.07;;;4.20;;
12228;SDS011;6177;52.402;9.800;2022-12-07T17:19:03;7.73;;;4.13;;
12228;SDS011;6177;52.402;9.800;2022-12-07T17:21:52;5.27;;;4.53;;
12228;SDS011;6177;52.402;9.800;2022-12-07T17:24:37;6.87;;;5.10;;
12228;SDS011;6177;52.402;9.800;2022-12-07T17:27:23;8.30;;;5.67;;
12228;SDS011;6177;52.402;9.800;2022-12-07T17:30:08;3.23;;;1.90;;
12228;SDS011;6177;52.402;9.800;2022-12-07T17:32:54;1.70;;;1.60;;
12228;SDS011;6177;52.402;9.800;2022-12-07T17:35:39;0.90;;;0.90;;
12228;SDS011;6177;52.402;9.800;2022-12-07T17:38:24;1.20;;;1.20;;
12228;SDS011;6177;52.402;9.800;2022-12-07T17:41:17;1.63;;;1.10;;
12228;SDS011;6177;52.402;9.800;2022-12-07T17:44:28;1.73;;;1.10;;
12228;SDS011;6177;52.402;9.800;2022-12-07T17:47:13;1.63;;;1.57;;
12228;SDS011;6177;52.402;9.800;2022-12-07T17:50:00;3.13;;;1.60;;
12228;SDS011;6177;52.402;9.800;2022-12-07T17:52:45;2.90;;;1.33;;
12228;SDS011;6177;52.402;9.800;2022-12-07T17:55:48;1.70;;;1.30;;
12228;SDS011;6177;52.402;9.800;2022-12-07T17:58:37;1.77;;;1.50;;
12228;SDS011;6177;52.402;9.800;2022-12-07T18:01:22;2.37;;;1.93;;
12228;SDS011;6177;52.402;9.800;2022-12-07T18:04:07;2.40;;;1.53;;
12228;SDS011;6177;52.402;9.800;2022-12-07T18:06:53;141.43;;;83.47;;
12228;SDS011;6177;52.402;9.800;2022-12-07T18:09:38;2.70;;;1.40;;
12228;SDS011;6177;52.402;9.800;2022-12-07T18:12:23;2.67;;;1.80;;
12228;SDS011;6177;52.402;9.800;2022-12-07T18:15:08;2.00;;;1.70;;
12228;SDS011;6177;52.402;9.800;2022-12-07T18:17:56;1.63;;;1.53;;
12228;SDS011;6177;52.402;9.800;2022-12-07T18:20:41;1.43;;;1.37;;
12228;SDS011;6177;52.402;9.800;2022-12-07T18:23:26;1.80;;;1.57;;
12228;SDS011;6177;52.402;9.800;2022-12-07T18:26:11;2.03;;;1.47;;
12228;SDS011;6177;52.402;9.800;2022-12-07T18:28:59;1.27;;;1.27;;
12228;SDS011;6177;52.402;9.800;2022-12-07T18:31:45;2.27;;;2.10;;
12228;SDS011;6177;52.402;9.800;2022-12-07T18:34:31;2.07;;;1.67;;
12228;SDS011;6177;52.402;9.800;2022-12-07T18:37:16;2.60;;;1.70;;
12228;SDS011;6177;52.402;9.800;2022-12-07T18:40:01;2.50;;;2.40;;
12228;SDS011;6177;52.402;9.800;2022-12-07T18:42:46;2.60;;;2.50;;
12228;SDS011;6177;52.402;9.800;2022-12-07T18:45:35;1.97;;;1.97;;
12228;SDS011;6177;52.402;9.800;2022-12-07T18:48:22;2.83;;;2.60;;
12228;SDS011;6177;52.402;9.800;2022-12-07T18:51:08;4.00;;;3.27;;
12228;SDS011;6177;52.402;9.800;2022-12-07T18:53:55;3.53;;;3.30;;
12228;SDS011;6177;52.402;9.800;2022-12-07T18:56:41;4.00;;;3.63;;
12228;SDS011;6177;52.402;9.800;2022-12-07T18:59:26;3.50;;;3.20;;
12228;SDS011;6177;52.402;9.800;2022-12-07T19:02:29;3.40;;;3.20;;
12228;SDS011;6177;52.402;9.800;2022-12-07T19:05:14;4.00;;;3.70;;
12228;SDS011;6177;52.402;9.800;2022-12-07T19:08:00;4.67;;;3.80;;
12228;SDS011;6177;52.402;9.800;2022-12-07T19:10:45;4.80;;;4.50;;
12228;SDS011;6177;52.402;9.800;2022-12-07T19:13:30;5.47;;;4.90;;
12228;SDS011;6177;52.402;9.800;2022-12-07T19:16:15;7.77;;;4.63;;
12228;SDS011;6177;52.402;9.800;2022-12-07T19:19:00;5.50;;;4.63;;